createdAt,value
2023-01-21T00:01:14.771Z,54.60
2023-01-21T00:03:41.879Z,56.60
2023-01-21T00:06:09.234Z,55.20
2023-01-21T00:08:36.230Z,52.00
2023-01-21T00:11:14.669Z,55.50
2023-01-21T00:13:42.337Z,58.50
2023-01-21T00:16:09.817Z,52.60
2023-01-21T00:18:37.141Z,53.20
2023-01-21T00:21:04.248Z,54.50
2023-01-21T00:23:31.293Z,60.30
2023-01-21T00:26:02.590Z,53.80
2023-01-21T00:28:30.756Z,52.90
2023-01-21T00:31:01.935Z,54.80
2023-01-21T00:33:29.077Z,55.90
2023-01-21T00:36:02.326Z,54.40
2023-01-21T00:38:29.704Z,56.80
2023-01-21T00:41:26.888Z,56.80
2023-01-21T00:43:53.861Z,56.20
2023-01-21T00:46:20.956Z,51.70
2023-01-21T00:48:48.005Z,58.90
2023-01-21T00:51:14.986Z,53.30
2023-01-21T00:53:42.302Z,59.30
2023-01-21T00:56:11.294Z,57.40
2023-01-21T00:58:38.600Z,57.20
2023-01-21T01:01:09.741Z,53.00
2023-01-21T01:03:37.496Z,56.60
2023-01-21T01:06:09.710Z,60.30
2023-01-21T01:08:36.721Z,59.90
2023-01-21T01:11:03.883Z,57.10
2023-01-21T01:13:30.953Z,53.60
2023-01-21T01:15:58.980Z,57.30
2023-01-21T01:18:26.789Z,56.60
2023-01-21T01:20:55.051Z,60.80
2023-01-21T01:23:22.112Z,56.60
2023-01-21T01:26:00.452Z,54.30
2023-01-21T01:28:27.962Z,53.20
2023-01-21T01:30:55.182Z,59.20
2023-01-21T01:33:22.317Z,52.70
2023-01-21T01:35:49.689Z,51.80
2023-01-21T01:38:17.508Z,54.30
2023-01-21T01:40:45.613Z,49.80
2023-01-21T01:43:19.587Z,49.00
2023-01-21T01:45:47.747Z,55.60
2023-01-21T01:48:18.135Z,53.70
2023-01-21T01:50:45.160Z,52.10
2023-01-21T01:53:12.153Z,49.30
2023-01-21T01:55:39.176Z,50.70
2023-01-21T01:58:08.157Z,52.80
2023-01-21T02:00:35.312Z,57.40
2023-01-21T02:03:21.819Z,51.30
2023-01-21T02:05:48.868Z,48.70
2023-01-21T02:08:15.867Z,51.60
2023-01-21T02:10:42.825Z,48.10
2023-01-21T02:13:09.790Z,49.60
2023-01-21T02:15:50.617Z,48.50
2023-01-21T02:18:24.004Z,45.30
2023-01-21T02:21:50.771Z,48.30
2023-01-21T02:25:06.235Z,45.40
2023-01-21T02:27:44.965Z,45.30
2023-01-21T02:30:30.939Z,44.70
2023-01-21T02:33:16.886Z,42.30
2023-01-21T02:35:48.837Z,42.90
2023-01-21T02:40:55.606Z,48.50
2023-01-21T02:43:32.521Z,46.80
2023-01-21T02:46:29.033Z,41.10
2023-01-21T02:49:15.207Z,45.90
2023-01-21T02:51:47.086Z,40.40
2023-01-21T02:54:42.656Z,38.80
2023-01-21T02:57:12.118Z,49.70
2023-01-21T02:59:40.146Z,44.90
2023-01-21T03:02:30.514Z,43.30
2023-01-21T03:05:26.958Z,43.20
2023-01-21T03:08:06.044Z,40.60
2023-01-21T03:10:39.044Z,44.50
2023-01-21T03:13:09.641Z,42.60
2023-01-21T03:15:56.992Z,38.70
2023-01-21T03:18:36.826Z,43.90
2023-01-21T03:21:06.331Z,39.00
2023-01-21T03:23:35.746Z,44.00
2023-01-21T03:26:02.871Z,40.60
2023-01-21T03:28:32.230Z,40.20
2023-01-21T03:31:05.092Z,39.20
2023-01-21T03:33:34.218Z,38.20
2023-01-21T03:36:01.962Z,45.50
2023-01-21T03:38:32.048Z,38.10
2023-01-21T03:41:07.950Z,40.70
2023-01-21T03:43:34.938Z,38.80
2023-01-21T03:46:09.362Z,40.30
2023-01-21T03:49:01.517Z,39.30
2023-01-21T03:51:37.110Z,36.70
2023-01-21T03:54:04.162Z,37.60
2023-01-21T03:56:31.324Z,41.40
2023-01-21T03:58:58.250Z,38.40
2023-01-21T04:01:25.260Z,36.20
2023-01-21T04:03:52.353Z,38.80
2023-01-21T04:06:21.775Z,40.90
2023-01-21T04:08:48.829Z,37.20
2023-01-21T04:11:16.322Z,39.20
2023-01-21T04:13:43.331Z,37.30
2023-01-21T04:16:10.381Z,35.50
2023-01-21T04:18:37.751Z,38.60
2023-01-21T04:21:04.716Z,39.00
2023-01-21T04:23:32.180Z,35.70
2023-01-21T04:25:59.182Z,36.00
2023-01-21T04:28:26.141Z,35.70
2023-01-21T04:30:54.320Z,32.90
2023-01-21T04:33:21.926Z,34.50
2023-01-21T04:35:48.915Z,35.20
2023-01-21T04:38:16.009Z,36.10
2023-01-21T04:40:43.049Z,37.10
2023-01-21T04:43:10.073Z,36.10
2023-01-21T04:45:37.135Z,34.50
2023-01-21T04:48:04.234Z,37.90
2023-01-21T04:50:31.228Z,33.10
2023-01-21T04:53:01.208Z,32.50
2023-01-21T04:55:30.640Z,33.60
2023-01-21T04:57:57.630Z,35.10
2023-01-21T05:00:24.732Z,35.90
2023-01-21T05:02:51.752Z,35.40
2023-01-21T05:05:20.054Z,31.90
2023-01-21T05:07:47.240Z,32.90
2023-01-21T05:10:18.055Z,33.70
2023-01-21T05:12:45.236Z,33.00
2023-01-21T05:15:12.248Z,34.20
2023-01-21T05:17:39.267Z,34.20
2023-01-21T05:20:06.781Z,35.00
2023-01-21T05:22:33.844Z,31.90
2023-01-21T05:25:00.945Z,32.80
2023-01-21T05:27:28.170Z,34.10
2023-01-21T05:29:59.814Z,29.50
2023-01-21T05:32:26.811Z,28.60
2023-01-21T05:34:53.837Z,33.60
2023-01-21T05:37:20.794Z,30.30
2023-01-21T05:39:47.852Z,34.50
2023-01-21T05:42:14.843Z,33.00
2023-01-21T05:44:41.856Z,32.70
2023-01-21T05:47:09.117Z,35.30
2023-01-21T05:49:36.179Z,31.10
2023-01-21T05:52:03.181Z,32.20
2023-01-21T05:54:30.260Z,33.30
2023-01-21T05:56:57.281Z,34.90
2023-01-21T05:59:25.036Z,30.50
2023-01-21T06:01:52.498Z,32.40
2023-01-21T06:04:19.551Z,29.50
2023-01-21T06:06:46.544Z,32.10
2023-01-21T06:09:14.160Z,30.80
2023-01-21T06:11:42.341Z,33.60
2023-01-21T06:14:09.381Z,31.50
2023-01-21T06:16:36.440Z,30.90
2023-01-21T06:19:03.510Z,33.50
2023-01-21T06:21:30.545Z,34.10
2023-01-21T06:23:57.666Z,30.80
2023-01-21T06:26:26.963Z,33.20
2023-01-21T06:28:57.207Z,35.10
2023-01-21T06:31:24.492Z,31.80
2023-01-21T06:33:51.497Z,30.30
2023-01-21T06:36:18.689Z,31.00
2023-01-21T06:38:45.674Z,31.00
2023-01-21T06:41:12.697Z,33.60
2023-01-21T06:43:39.686Z,33.90
2023-01-21T06:46:10.301Z,29.70
2023-01-21T06:48:37.625Z,31.70
2023-01-21T06:51:04.807Z,32.80
2023-01-21T06:53:31.791Z,32.10
2023-01-21T06:55:58.734Z,35.20
2023-01-21T06:58:25.766Z,35.00
2023-01-21T07:00:56.570Z,31.80
2023-01-21T07:03:23.617Z,30.90
2023-01-21T07:05:50.623Z,34.90
2023-01-21T07:08:17.543Z,32.90
2023-01-21T07:10:47.462Z,31.50
2023-01-21T07:13:14.782Z,34.10
2023-01-21T07:15:43.975Z,32.20
2023-01-21T07:18:11.104Z,29.40
2023-01-21T07:20:40.921Z,35.00
2023-01-21T07:23:08.565Z,31.50
2023-01-21T07:25:37.554Z,29.80
2023-01-21T07:28:04.697Z,30.70
2023-01-21T07:30:31.735Z,28.80
2023-01-21T07:32:58.741Z,33.20
2023-01-21T07:35:25.789Z,30.50
2023-01-21T07:37:53.011Z,30.60
2023-01-21T07:40:20.128Z,31.00
2023-01-21T07:42:54.158Z,35.60
2023-01-21T07:45:21.809Z,34.60
2023-01-21T07:47:49.280Z,29.40
2023-01-21T07:50:17.131Z,32.10
2023-01-21T07:52:44.140Z,35.80
2023-01-21T07:55:12.741Z,31.70
2023-01-21T07:57:39.952Z,32.50
2023-01-21T08:00:07.400Z,33.30
2023-01-21T08:02:39.066Z,31.90
2023-01-21T08:05:08.360Z,30.90
2023-01-21T08:07:35.364Z,32.20
2023-01-21T08:10:02.556Z,32.30
2023-01-21T08:12:29.639Z,32.30
2023-01-21T08:15:00.799Z,29.70
2023-01-21T08:17:27.817Z,29.60
2023-01-21T08:19:54.836Z,29.50
2023-01-21T08:22:22.295Z,32.50
2023-01-21T08:24:49.353Z,32.70
2023-01-21T08:27:16.287Z,30.00
2023-01-21T08:29:43.388Z,30.80
2023-01-21T08:32:10.373Z,30.70
2023-01-21T08:34:37.390Z,30.40
2023-01-21T08:37:04.403Z,29.90
2023-01-21T08:39:31.411Z,29.20
2023-01-21T08:41:58.396Z,32.90
2023-01-21T08:44:25.383Z,27.50
2023-01-21T08:46:52.348Z,27.00
2023-01-21T08:49:19.427Z,29.90
2023-01-21T08:51:46.736Z,27.00
2023-01-21T08:54:13.667Z,30.70
2023-01-21T08:56:40.711Z,32.10
2023-01-21T08:59:07.724Z,37.90
2023-01-21T09:01:38.089Z,32.80
2023-01-21T09:04:05.194Z,28.40
2023-01-21T09:06:32.368Z,32.60
2023-01-21T09:08:59.710Z,32.60
2023-01-21T09:11:27.511Z,30.10
2023-01-21T09:13:54.838Z,33.10
2023-01-21T09:16:22.972Z,31.20
2023-01-21T09:18:49.954Z,35.90
2023-01-21T09:21:17.450Z,33.10
2023-01-21T09:23:44.563Z,33.90
2023-01-21T09:26:19.572Z,33.50
2023-01-21T09:28:51.116Z,37.70
2023-01-21T09:31:18.738Z,35.40
2023-01-21T09:33:46.964Z,29.90
2023-01-21T09:36:19.509Z,31.40
2023-01-21T09:38:46.954Z,34.70
2023-01-21T09:41:30.088Z,31.10
2023-01-21T09:46:43.699Z,35.70
2023-01-21T09:49:15.957Z,38.20
2023-01-21T09:51:52.396Z,36.20
2023-01-21T09:54:27.892Z,33.20
2023-01-21T09:57:07.088Z,37.60
2023-01-21T10:00:05.671Z,35.10
2023-01-21T10:02:48.383Z,36.90
2023-01-21T10:05:25.633Z,33.20
2023-01-21T10:08:11.505Z,36.30
2023-01-21T10:10:51.279Z,34.90
2023-01-21T10:13:38.013Z,36.80
2023-01-21T10:16:39.171Z,30.90
2023-01-21T10:19:06.171Z,40.40
2023-01-21T10:21:33.257Z,38.70
2023-01-21T10:24:10.680Z,39.20
2023-01-21T10:26:37.728Z,36.30
2023-01-21T10:29:04.722Z,38.60
2023-01-21T10:31:40.977Z,36.10
2023-01-21T10:34:13.276Z,36.60
2023-01-21T10:37:18.669Z,35.40
2023-01-21T10:40:08.181Z,34.10
2023-01-21T10:42:41.533Z,39.10
2023-01-21T10:45:24.091Z,37.10
2023-01-21T10:47:59.302Z,36.80
2023-01-21T10:50:32.248Z,36.00
2023-01-21T10:53:25.669Z,38.30
2023-01-21T10:56:39.755Z,34.40
2023-01-21T10:59:09.396Z,36.80
2023-01-21T11:01:38.378Z,33.90
2023-01-21T11:04:27.314Z,34.00
2023-01-21T11:07:08.903Z,35.20
2023-01-21T11:09:38.870Z,31.00
2023-01-21T11:12:06.370Z,30.80
2023-01-21T11:14:34.112Z,32.20
2023-01-21T11:17:01.448Z,34.00
2023-01-21T11:19:31.117Z,31.80
2023-01-21T11:22:06.245Z,32.00
2023-01-21T11:24:47.094Z,33.70
2023-01-21T11:27:39.809Z,34.00
2023-01-21T11:30:26.113Z,36.10
2023-01-21T11:32:55.169Z,36.30
2023-01-21T11:35:22.776Z,36.00
2023-01-21T11:37:49.807Z,35.70
2023-01-21T11:40:25.041Z,34.00
2023-01-21T11:42:54.641Z,36.60
2023-01-21T11:45:30.198Z,39.70
2023-01-21T11:47:58.154Z,37.60
2023-01-21T11:50:36.034Z,38.10
2023-01-21T11:53:19.030Z,36.10
2023-01-21T11:55:54.673Z,38.70
2023-01-21T12:10:19.841Z,38.00
2023-01-21T12:12:56.688Z,36.30
2023-01-21T12:15:43.055Z,35.20
2023-01-21T12:18:51.305Z,31.20
2023-01-21T12:21:21.515Z,38.60
2023-01-21T12:23:56.924Z,42.10
2023-01-21T12:26:41.543Z,34.70
2023-01-21T12:29:23.929Z,35.50
2023-01-21T12:31:54.705Z,36.60
2023-01-21T12:34:30.464Z,36.10
2023-01-21T12:37:03.792Z,37.60
2023-01-21T12:39:37.168Z,32.80
2023-01-21T12:42:19.071Z,38.30
2023-01-21T12:44:56.629Z,42.20
2023-01-21T12:47:34.674Z,35.60
2023-01-21T12:50:14.270Z,34.40
2023-01-21T12:52:56.127Z,34.30
2023-01-21T12:56:03.381Z,30.20
2023-01-21T12:58:32.699Z,34.90
2023-01-21T13:01:28.591Z,28.40
2023-01-21T13:03:59.975Z,30.00
2023-01-21T13:06:52.835Z,31.90
2023-01-21T13:09:35.209Z,30.40
2023-01-21T13:12:05.173Z,31.00
2023-01-21T13:14:37.955Z,29.50
2023-01-21T13:17:25.278Z,32.60
2023-01-21T13:19:52.343Z,30.90
2023-01-21T13:22:37.625Z,28.90
2023-01-21T13:25:26.209Z,28.70
2023-01-21T13:28:05.555Z,32.20
2023-01-21T13:30:55.256Z,30.40
2023-01-21T13:33:34.833Z,33.30
2023-01-21T13:36:24.034Z,29.70
2023-01-21T13:39:00.234Z,34.90
2023-01-21T13:41:56.712Z,28.80
2023-01-21T13:44:57.248Z,26.40
2023-01-21T13:47:42.582Z,33.90
2023-01-21T13:50:18.091Z,33.20
2023-01-21T13:53:13.372Z,30.90
2023-01-21T13:56:00.599Z,33.10
2023-01-21T13:58:47.764Z,27.90
2023-01-21T14:01:28.834Z,29.00
2023-01-21T14:04:18.321Z,29.30
2023-01-21T14:06:56.793Z,32.10
2023-01-21T14:09:48.306Z,28.60
2023-01-21T14:12:31.826Z,32.60
2023-01-21T14:15:01.889Z,26.50
2023-01-21T14:17:50.931Z,30.00
2023-01-21T14:20:36.344Z,31.80
2023-01-21T14:23:28.200Z,29.80
2023-01-21T14:26:03.413Z,30.00
2023-01-21T14:28:42.696Z,29.00
2023-01-21T14:31:15.072Z,26.10
2023-01-21T14:33:57.857Z,25.50
2023-01-21T14:36:57.460Z,23.90
2023-01-21T14:40:01.150Z,24.30
2023-01-21T14:43:00.647Z,27.60
2023-01-21T14:45:49.635Z,27.60
2023-01-21T14:48:34.123Z,26.90
2023-01-21T14:51:12.210Z,26.90
2023-01-21T14:53:50.221Z,23.90
2023-01-21T14:56:23.225Z,26.60
2023-01-21T14:59:12.365Z,26.60
2023-01-21T15:01:42.981Z,26.40
2023-01-21T15:04:27.814Z,27.50
2023-01-21T15:07:02.307Z,26.10
2023-01-21T15:09:32.241Z,28.70
2023-01-21T15:12:01.679Z,29.80
2023-01-21T15:14:30.793Z,24.80
2023-01-21T15:16:57.772Z,26.50
2023-01-21T15:19:24.790Z,23.20
2023-01-21T15:22:17.701Z,24.90
2023-01-21T15:25:19.638Z,25.00
2023-01-21T15:28:25.209Z,24.50
2023-01-21T15:31:00.279Z,25.80
2023-01-21T15:33:27.800Z,23.50
2023-01-21T15:35:54.826Z,25.90
2023-01-21T15:38:21.777Z,26.90
2023-01-21T15:41:01.109Z,26.30
2023-01-21T15:43:51.847Z,29.00
2023-01-21T15:46:28.250Z,27.40
2023-01-21T15:48:58.321Z,25.90
2023-01-21T15:52:07.515Z,23.40
2023-01-21T15:54:48.538Z,25.20
2023-01-21T15:57:43.631Z,26.90
2023-01-21T16:00:42.296Z,24.00
2023-01-21T16:03:29.381Z,23.20
2023-01-21T16:06:06.055Z,25.60
2023-01-21T16:08:46.369Z,23.80
2023-01-21T16:11:16.775Z,22.20
2023-01-21T16:13:53.851Z,21.50
2023-01-21T16:16:36.231Z,24.90
2023-01-21T16:21:35.517Z,21.00
2023-01-21T16:24:12.102Z,17.50
2023-01-21T16:26:39.258Z,19.50
2023-01-21T16:29:13.948Z,23.40
2023-01-21T16:31:51.908Z,19.90
2023-01-21T16:34:39.155Z,17.40
2023-01-21T16:37:07.007Z,20.80
2023-01-21T16:39:34.006Z,21.20
2023-01-21T16:42:05.820Z,20.50
2023-01-21T16:44:33.432Z,19.70
2023-01-21T16:47:00.407Z,20.60
2023-01-21T16:49:27.403Z,19.70
2023-01-21T16:51:57.260Z,22.80
2023-01-21T16:54:31.705Z,18.10
2023-01-21T16:56:59.684Z,20.40
2023-01-21T16:59:40.810Z,19.10
2023-01-21T17:02:16.291Z,20.20
2023-01-21T17:04:43.431Z,18.80
2023-01-21T17:07:39.183Z,17.70
2023-01-21T17:10:22.559Z,17.90
2023-01-21T17:13:16.272Z,17.50
2023-01-21T17:16:03.704Z,20.20
2023-01-21T17:18:33.118Z,20.80
2023-01-21T17:21:07.319Z,23.00
2023-01-21T17:23:46.998Z,22.20
2023-01-21T17:26:17.183Z,20.00
2023-01-21T17:29:44.616Z,22.20
2023-01-21T17:32:32.473Z,21.20
2023-01-21T17:35:12.928Z,20.50
2023-01-21T17:37:44.360Z,18.70
2023-01-21T17:40:25.440Z,19.90
2023-01-21T17:42:52.546Z,19.70
2023-01-21T17:45:27.537Z,18.00
2023-01-21T17:48:08.739Z,18.50
2023-01-21T17:50:37.536Z,17.40
2023-01-21T17:53:07.469Z,18.30
2023-01-21T17:55:36.966Z,16.90
2023-01-21T17:58:05.972Z,18.50
2023-01-21T18:00:42.018Z,18.00
2023-01-21T18:03:10.749Z,18.20
2023-01-21T18:05:38.670Z,16.40
2023-01-21T18:08:15.612Z,17.70
2023-01-21T18:10:43.477Z,16.60
2023-01-21T18:13:15.149Z,17.90
2023-01-21T18:18:17.098Z,18.90
2023-01-21T18:20:44.365Z,16.30
2023-01-21T18:23:11.782Z,16.20
2023-01-21T18:25:39.700Z,15.80
2023-01-21T18:28:17.882Z,14.90
2023-01-21T18:30:45.185Z,16.00
2023-01-21T18:33:12.740Z,15.80
2023-01-21T18:35:40.562Z,14.80
2023-01-21T18:38:15.494Z,17.80
2023-01-21T18:40:42.722Z,15.40
2023-01-21T18:43:10.111Z,15.20
2023-01-21T18:45:37.122Z,17.40
2023-01-21T18:48:04.213Z,15.70
2023-01-21T18:50:31.426Z,16.40
2023-01-21T18:52:58.439Z,17.40
2023-01-21T18:55:27.293Z,18.10
2023-01-21T18:57:54.849Z,16.30
2023-01-21T19:00:27.031Z,17.00
2023-01-21T19:02:54.873Z,16.50
2023-01-21T19:05:23.095Z,18.70
2023-01-21T19:07:50.312Z,15.40
2023-01-21T19:10:19.953Z,18.30
2023-01-21T19:12:47.754Z,17.40
2023-01-21T19:15:22.364Z,19.20
2023-01-21T19:17:49.574Z,17.60
2023-01-21T19:20:18.676Z,17.80
2023-01-21T19:22:46.483Z,16.90
2023-01-21T19:25:13.803Z,18.80
2023-01-21T19:27:46.055Z,18.80
2023-01-21T19:30:23.217Z,17.10
2023-01-21T19:32:51.197Z,18.00
2023-01-21T19:35:20.836Z,19.10
2023-01-21T19:37:50.948Z,19.10
2023-01-21T19:40:22.552Z,18.00
2023-01-21T19:42:49.539Z,19.00
2023-01-21T19:45:17.008Z,19.50
2023-01-21T19:47:47.782Z,20.40
2023-01-21T19:50:23.000Z,17.70
2023-01-21T19:52:51.080Z,21.00
2023-01-21T19:55:23.211Z,20.10
2023-01-21T19:57:56.808Z,20.20
2023-01-21T20:50:33.859Z,25.00
2023-01-21T20:53:01.341Z,28.00
2023-01-21T20:55:28.497Z,26.40
2023-01-21T20:57:55.496Z,27.90
2023-01-21T21:00:28.054Z,28.70
2023-01-21T21:02:55.881Z,25.70
2023-01-21T21:05:23.970Z,28.90
2023-01-21T21:07:51.062Z,27.70
2023-01-21T21:10:22.059Z,26.90
2023-01-21T21:12:49.428Z,18.50
2023-01-21T21:15:17.212Z,28.40
2023-01-21T21:17:44.406Z,27.40
2023-01-21T21:20:20.005Z,27.60
2023-01-21T21:22:47.366Z,27.00
2023-01-21T21:25:19.180Z,25.50
2023-01-21T21:30:18.131Z,24.20
2023-01-21T21:32:45.097Z,24.70
2023-01-21T21:35:44.469Z,28.40
2023-01-21T21:38:18.593Z,27.20
2023-01-21T21:40:46.906Z,24.90
2023-01-21T21:43:35.043Z,27.60
2023-01-21T21:46:26.915Z,26.70
2023-01-21T21:48:55.274Z,32.30
2023-01-21T21:51:22.725Z,35.00
2023-01-21T21:53:50.032Z,31.00
2023-01-21T21:56:22.844Z,37.90
2023-01-21T21:58:50.218Z,32.50
2023-01-21T22:01:25.348Z,38.20
2023-01-21T22:03:52.851Z,34.70
2023-01-21T22:06:21.618Z,32.10
2023-01-21T22:08:48.837Z,34.10
2023-01-21T22:11:18.012Z,34.00
2023-01-21T22:13:50.314Z,33.70
2023-01-21T22:16:19.423Z,37.90
2023-01-21T22:18:46.541Z,38.80
2023-01-21T22:21:13.519Z,34.10
2023-01-21T22:23:40.495Z,40.60
2023-01-21T22:26:09.352Z,37.90
2023-01-21T22:28:36.564Z,39.10
2023-01-21T22:31:04.837Z,39.10
2023-01-21T22:33:33.196Z,37.80
2023-01-21T22:36:07.485Z,37.70
2023-01-21T22:38:34.938Z,38.70
2023-01-21T22:41:02.028Z,41.60
2023-01-21T22:43:29.697Z,38.20
2023-01-21T22:45:57.150Z,43.70
2023-01-21T22:48:24.354Z,44.60
2023-01-21T22:50:57.626Z,44.30
2023-01-21T22:53:24.814Z,43.60
2023-01-21T22:56:03.305Z,44.00
2023-01-21T22:58:31.300Z,49.70
2023-01-21T23:00:58.868Z,43.10
2023-01-21T23:03:26.071Z,45.50
2023-01-21T23:05:53.270Z,45.90
2023-01-21T23:08:20.493Z,45.00
2023-01-21T23:10:47.897Z,42.20
2023-01-21T23:13:15.337Z,38.60
2023-01-21T23:15:48.150Z,42.30
2023-01-21T23:18:15.287Z,40.90
2023-01-21T23:20:43.602Z,41.60
2023-01-21T23:23:11.015Z,44.80
2023-01-21T23:25:42.227Z,45.80
2023-01-21T23:28:12.008Z,44.90
2023-01-21T23:30:39.045Z,45.20
2023-01-21T23:33:07.435Z,44.30
2023-01-21T23:35:34.681Z,42.40
2023-01-21T23:38:02.429Z,41.90
2023-01-21T23:40:29.487Z,40.40
2023-01-21T23:42:57.347Z,44.90
2023-01-21T23:45:24.393Z,43.50
2023-01-21T23:47:51.549Z,42.30
2023-01-21T23:50:20.282Z,40.30
2023-01-21T23:52:47.486Z,43.50
2023-01-21T23:55:15.057Z,42.20
2023-01-21T23:57:42.019Z,44.90
